createdAt,value
2019-02-26T05:51:44.126Z,8.20
2019-02-26T10:23:56.717Z,5.05
2019-02-26T10:26:30.489Z,4.33
2019-02-26T10:29:04.548Z,4.30
2019-02-26T10:31:31.665Z,4.92
2019-02-26T10:34:03.026Z,4.70
2019-02-26T10:36:36.432Z,5.00
2019-02-26T10:39:08.554Z,4.72
2019-02-26T10:41:42.275Z,4.83
2019-02-26T10:44:14.693Z,4.15
2019-02-26T10:46:45.600Z,4.72
2019-02-26T10:49:16.107Z,4.50
2019-02-26T10:51:46.581Z,4.75
2019-02-26T10:54:18.114Z,4.75
2019-02-26T10:56:48.790Z,4.22
2019-02-26T10:59:19.788Z,5.00
2019-02-26T11:01:53.256Z,3.80
2019-02-26T11:04:34.224Z,4.30
2019-02-26T11:06:56.094Z,5.10
2019-02-26T11:09:29.464Z,5.00
2019-02-26T11:12:00.813Z,4.60
2019-02-26T11:14:33.448Z,3.85
2019-02-26T11:17:03.383Z,3.58
2019-02-26T11:19:36.663Z,3.47
2019-02-26T11:22:07.226Z,4.20
2019-02-26T11:24:37.805Z,3.65
2019-02-26T11:27:09.391Z,4.22
2019-02-26T11:29:40.766Z,3.42
2019-02-26T11:32:13.453Z,3.98
2019-02-26T11:34:44.700Z,4.22
2019-02-26T11:37:15.353Z,4.30
2019-02-26T11:39:46.086Z,3.45
2019-02-26T11:42:18.560Z,4.67
2019-02-26T11:44:49.128Z,3.45
2019-02-26T11:47:20.632Z,4.75
2019-02-26T11:49:51.196Z,5.12
2019-02-26T11:52:21.769Z,4.60
2019-02-26T11:54:52.388Z,4.33
2019-02-26T11:57:22.884Z,4.80
2019-02-26T11:59:53.364Z,5.67
2019-02-26T12:02:28.017Z,6.85
2019-02-26T12:04:57.558Z,4.33
2019-02-26T12:07:29.787Z,4.42
2019-02-26T12:10:08.739Z,4.90
2019-02-26T12:12:36.830Z,5.15
2019-02-26T12:15:10.053Z,5.15
2019-02-26T12:17:39.434Z,5.03
2019-02-26T12:20:12.126Z,4.87
2019-02-26T12:22:41.209Z,10.88
2019-02-26T12:25:11.114Z,7.20
2019-02-26T12:27:41.314Z,5.28
2019-02-26T12:30:13.382Z,4.37
2019-02-26T12:32:45.508Z,23.95
2019-02-26T12:35:17.241Z,7.22
2019-02-26T12:37:42.732Z,4.62
2019-02-26T12:40:13.128Z,4.47
2019-02-26T12:42:41.341Z,9.30
2019-02-26T12:45:13.611Z,4.28
2019-02-26T12:47:42.885Z,4.47
2019-02-26T12:50:13.187Z,4.15
2019-02-26T12:52:42.317Z,3.65
2019-02-26T12:55:11.726Z,4.05
2019-02-26T12:57:39.841Z,4.20
2019-02-26T13:00:13.167Z,4.85
2019-02-26T13:02:43.313Z,4.72
2019-02-26T13:05:13.464Z,4.92
2019-02-26T13:07:41.523Z,5.17
2019-02-26T13:10:12.465Z,4.80
2019-02-26T13:12:40.823Z,5.35
2019-02-26T13:15:19.262Z,6.55
2019-02-26T13:17:48.892Z,4.08
2019-02-26T13:20:20.228Z,5.55
2019-02-26T13:22:48.444Z,4.62
2019-02-26T13:25:17.871Z,5.70
2019-02-26T13:27:48.079Z,8.38
2019-02-26T13:30:19.933Z,6.33
2019-02-26T13:32:56.342Z,5.22
2019-02-26T13:35:21.018Z,4.47
2019-02-26T13:37:49.554Z,4.53
2019-02-26T13:40:18.617Z,4.70
2019-02-26T13:42:56.623Z,4.25
2019-02-26T13:45:23.347Z,4.35
2019-02-26T13:47:52.395Z,10.08
2019-02-26T13:50:22.841Z,3.80
2019-02-26T13:52:51.024Z,3.45
2019-02-26T13:55:19.708Z,3.25
2019-02-26T13:57:47.992Z,3.65
2019-02-26T14:00:23.549Z,3.22
2019-02-26T14:02:46.313Z,2.70
2019-02-26T14:05:14.480Z,2.87
2019-02-26T14:07:43.147Z,3.15
2019-02-26T14:10:13.692Z,3.35
2019-02-26T14:18:57.582Z,2.65
2019-02-26T14:21:38.446Z,3.10
2019-02-26T14:24:06.560Z,3.10
2019-02-26T14:26:34.666Z,2.98
2019-02-26T14:29:05.295Z,2.87
2019-02-26T14:31:33.209Z,2.75
2019-02-26T14:37:33.304Z,2.92
2019-02-26T14:40:25.379Z,6.00
2019-02-26T14:42:54.697Z,9.40
2019-02-26T14:45:26.177Z,6.35
2019-02-26T14:47:54.898Z,2.55
2019-02-26T14:50:23.001Z,2.10
2019-02-26T14:52:51.043Z,2.02
2019-02-26T14:55:19.132Z,2.30
2019-02-26T14:57:49.897Z,1.72
2019-02-26T15:00:21.864Z,1.90
2019-02-26T15:02:50.193Z,1.82
2019-02-26T16:53:00.291Z,3.70
2019-02-26T16:55:28.504Z,3.17
2019-02-26T16:57:56.834Z,2.67
2019-02-26T17:00:26.783Z,3.20
2019-02-26T17:02:55.089Z,2.55
2019-02-26T17:05:23.317Z,2.92
2019-02-26T17:07:56.766Z,2.80
2019-02-26T17:10:29.137Z,2.50
2019-02-26T17:12:55.750Z,2.40
2019-02-26T17:15:59.647Z,2.55
2019-02-26T17:18:27.430Z,4.90
2019-02-26T17:20:56.876Z,4.00
2019-02-26T17:23:25.339Z,3.55
2019-02-26T17:25:53.482Z,3.75
2019-02-26T17:28:35.715Z,39.85
2019-02-26T17:31:03.785Z,44.38
2019-02-26T17:33:34.181Z,29.07
2019-02-26T17:36:02.627Z,30.97
2019-02-26T17:38:30.628Z,19.12
2019-02-26T17:40:58.801Z,15.30
2019-02-26T17:43:26.687Z,13.32
2019-02-26T17:45:54.836Z,9.78
2019-02-26T17:48:25.996Z,9.00
2019-02-26T17:50:54.111Z,8.13
2019-02-26T17:53:22.480Z,6.60
2019-02-26T17:55:53.591Z,5.70
2019-02-26T17:58:24.908Z,4.60
2019-02-26T18:00:58.529Z,3.47
2019-02-26T18:03:27.658Z,3.20
2019-02-26T18:05:55.996Z,4.10
2019-02-26T18:08:46.463Z,6.87
2019-02-26T18:11:14.880Z,35.35
2019-02-26T18:13:43.995Z,21.05
2019-02-26T18:16:12.016Z,9.43
2019-02-26T18:18:39.711Z,28.02
2019-02-26T18:21:07.866Z,17.23
2019-02-26T18:23:38.718Z,16.12
2019-02-26T18:26:06.445Z,7.58
2019-02-26T18:28:36.787Z,7.37
2019-02-26T18:31:04.922Z,5.53
2019-02-26T18:33:35.593Z,4.20
2019-02-26T18:36:03.169Z,4.30
2019-02-26T18:41:35.113Z,3.45
2019-02-26T18:44:05.875Z,3.62
2019-02-26T18:46:34.490Z,3.55
2019-02-26T18:49:02.772Z,3.50
2019-02-26T18:51:36.114Z,3.42
2019-02-26T18:54:00.844Z,5.55
2019-02-26T18:56:28.815Z,4.25
2019-02-26T18:58:56.533Z,4.03
2019-02-26T19:01:24.858Z,3.92
2019-02-26T19:03:55.687Z,3.92
2019-02-26T19:06:24.672Z,4.28
2019-02-26T19:08:53.447Z,3.45
2019-02-26T19:11:25.403Z,2.75
2019-02-26T19:13:51.746Z,3.35
2019-02-26T19:16:20.698Z,3.33
2019-02-26T19:18:51.807Z,3.65
2019-02-26T19:21:21.805Z,3.55
2019-02-26T19:23:50.141Z,3.52
2019-02-26T19:26:18.076Z,5.22
2019-02-26T19:28:46.449Z,5.62
2019-02-26T19:31:14.402Z,6.97
2019-02-26T19:33:42.350Z,9.35
2019-02-26T19:36:13.661Z,11.53
2019-02-26T19:38:41.778Z,7.60
2019-02-26T19:41:14.483Z,5.15
2019-02-26T19:43:42.397Z,4.42
2019-02-26T19:46:10.321Z,3.58
2019-02-26T19:48:39.025Z,3.65
2019-02-26T19:51:09.231Z,3.65
2019-02-26T19:53:37.293Z,3.42
2019-02-26T19:56:33.125Z,3.30
2019-02-26T19:59:07.388Z,3.75
2019-02-26T20:01:39.096Z,2.62
2019-02-26T20:04:14.120Z,4.50
2019-02-26T20:07:29.738Z,3.98
2019-02-26T20:10:01.349Z,3.10
2019-02-26T20:12:44.708Z,2.75
2019-02-26T20:40:25.629Z,5.65
2019-02-26T20:42:53.298Z,4.78
2019-02-26T20:48:36.545Z,4.75
2019-02-26T20:54:28.182Z,4.95
2019-02-26T21:44:08.798Z,2.60
2019-02-26T21:49:18.090Z,2.30
2019-02-26T21:51:46.184Z,2.87
2019-02-26T21:54:13.972Z,2.47
2019-02-26T21:56:41.931Z,2.50
2019-02-26T21:59:09.934Z,2.75
2019-02-26T22:01:37.860Z,3.02
2019-02-26T22:04:05.620Z,3.35
2019-02-26T22:06:33.297Z,2.90
2019-02-26T22:09:01.438Z,3.27
2019-02-26T22:11:31.219Z,3.52
2019-02-26T22:14:00.015Z,4.12
2019-02-26T22:16:28.492Z,3.47
2019-02-26T22:18:56.266Z,3.80
2019-02-26T22:21:24.066Z,4.35
2019-02-26T22:23:51.869Z,4.78
2019-02-26T22:26:19.749Z,5.45
2019-02-26T22:28:47.555Z,5.08
2019-02-26T22:31:15.235Z,5.47
2019-02-26T22:33:43.434Z,5.85
2019-02-26T22:36:13.734Z,4.90
2019-02-26T22:38:41.519Z,4.50
2019-02-26T22:41:09.905Z,4.97
2019-02-26T22:43:37.571Z,4.03
2019-02-26T22:46:05.347Z,3.85
2019-02-26T22:48:32.971Z,3.90
2019-02-26T22:51:00.844Z,3.37
2019-02-26T22:53:28.598Z,4.05
2019-02-26T22:55:56.245Z,4.47
2019-02-26T22:58:24.023Z,5.03
2019-02-26T23:01:16.607Z,4.92
2019-02-26T23:03:46.585Z,5.62
2019-02-26T23:06:14.511Z,5.47
2019-02-26T23:08:44.872Z,6.50
2019-02-26T23:11:13.357Z,6.25
2019-02-26T23:13:41.600Z,5.60
2019-02-26T23:16:09.700Z,4.95
2019-02-26T23:18:38.405Z,5.08
2019-02-26T23:21:06.372Z,5.17
2019-02-26T23:23:34.742Z,7.95
2019-02-26T23:26:02.818Z,12.98
